Time;durP1;ratioP1;P1;durP2;ratioP2;P2;SDS_P1;SDS_P2;PMS_P1;PMS_P2;Temp;Humidity;BMP_temperature;BMP_pressure;BME280_temperature;BME280_humidity;BME280_pressure;Samples;Min_cycle;Max_cycle;Signal;HPM_P1;HPM_P2
2023/08/17 00:00:58;;;;;;;4.90;1.83;;;;;;;-144.73;100.00;54383.06;4977394;28;20039;-75
2023/08/17 00:03:24;;;;;;;7.60;1.90;;;;;;;-144.73;100.00;54417.97;4983548;28;20022;-74
2023/08/17 00:05:49;;;;;;;9.80;2.60;;;;;;;-144.73;100.00;54411.81;4974121;28;20030;-74
2023/08/17 00:08:15;;;;;;;5.85;1.65;;;;;;;-144.73;100.00;54440.53;4983295;28;20042;-74
2023/08/17 00:10:40;;;;;;;5.10;1.88;;;;;;;-144.73;100.00;54391.28;4973849;28;20105;-74
2023/08/17 00:13:05;;;;;;;13.50;2.65;;;;;;;-144.73;100.00;54415.91;4971880;28;20023;-74
2023/08/17 00:15:32;;;;;;;8.90;2.50;;;;;;;-144.73;100.00;54391.28;4971126;28;20035;-74
2023/08/17 00:17:57;;;;;;;15.43;3.22;;;;;;;-144.73;100.00;54383.06;4971681;28;20024;-74
2023/08/17 00:20:22;;;;;;;11.63;2.08;;;;;;;-144.73;100.00;54368.69;4968669;28;20031;-74
2023/08/17 00:22:48;;;;;;;6.50;1.60;;;;;;;-144.73;100.00;54395.38;4981946;28;20485;-74
2023/08/17 00:25:13;;;;;;;8.82;1.80;;;;;;;-144.73;100.00;54399.50;4985517;28;20125;-74
2023/08/17 00:27:39;;;;;;;5.40;1.77;;;;;;;-144.73;100.00;54397.44;4990121;28;20030;-73
2023/08/17 00:30:05;;;;;;;16.02;2.38;;;;;;;-144.73;100.00;54411.81;4976341;28;20042;-74
2023/08/17 00:32:30;;;;;;;8.93;2.20;;;;;;;-144.73;100.00;54329.72;4976932;28;20023;-74
2023/08/17 00:34:56;;;;;;;6.13;1.63;;;;;;;-144.73;100.00;54424.13;4983241;28;20027;-74
2023/08/17 00:37:21;;;;;;;3.80;1.70;;;;;;;-144.73;100.00;54415.91;4980876;28;20027;-74
2023/08/17 00:39:46;;;;;;;6.15;1.65;;;;;;;-144.73;100.00;54378.97;4980202;28;20053;-74
2023/08/17 00:42:12;;;;;;;13.18;3.55;;;;;;;-144.73;100.00;54370.75;4986029;28;20031;-74
2023/08/17 00:44:37;;;;;;;6.15;2.10;;;;;;;-144.73;100.00;54440.53;4984328;28;20061;-74
2023/08/17 00:47:04;;;;;;;9.23;2.10;;;;;;;-144.73;100.00;54376.91;4981621;28;20049;-75
2023/08/17 00:49:30;;;;;;;10.68;2.30;;;;;;;-144.73;100.00;54370.75;4991720;28;20054;-75
2023/08/17 00:51:56;;;;;;;13.30;2.08;;;;;;;-144.73;100.00;54376.91;4978817;28;20502;-75
2023/08/17 00:54:25;;;;;;;8.27;1.98;;;;;;;-144.73;100.00;54395.38;4978316;28;20034;-74
2023/08/17 00:56:51;;;;;;;14.77;2.40;;;;;;;-144.73;100.00;54436.44;4984920;28;20014;-74
2023/08/17 00:59:16;;;;;;;9.70;2.05;;;;;;;-144.73;100.00;54395.38;4982066;28;20061;-77
2023/08/17 01:01:42;;;;;;;5.80;1.95;;;;;;;-144.73;100.00;54411.81;4981475;28;20066;-74
2023/08/17 01:04:08;;;;;;;10.70;1.90;;;;;;;-144.73;100.00;54432.31;4980223;28;20153;-74
2023/08/17 01:06:33;;;;;;;9.00;1.95;;;;;;;-144.73;100.00;54407.69;4982646;28;20018;-74
2023/08/17 01:08:59;;;;;;;13.82;2.90;;;;;;;-144.73;100.00;54368.69;4982361;28;20034;-74
2023/08/17 01:11:24;;;;;;;8.90;3.03;;;;;;;-144.73;100.00;54426.16;4979212;28;20038;-75
2023/08/17 01:14:01;;;;;;;9.38;2.30;;;;;;;-144.73;100.00;54387.19;4974035;28;20066;-74
2023/08/17 01:16:31;;;;;;;7.32;1.75;;;;;;;-144.73;100.00;54448.75;4990095;28;20193;-74
2023/08/17 01:19:00;;;;;;;9.13;1.75;;;;;;;-144.73;100.00;54432.31;4990297;28;20050;-74
2023/08/17 01:21:35;;;;;;;11.95;2.15;;;;;;;-144.73;100.00;54395.38;4983931;28;20057;-74
2023/08/17 01:24:03;;;;;;;10.77;1.92;;;;;;;-144.73;100.00;54407.69;4980044;28;20022;-74
2023/08/17 01:26:29;;;;;;;6.40;1.58;;;;;;;-144.73;100.00;54444.66;4975175;28;20488;-74
2023/08/17 01:28:57;;;;;;;11.82;2.20;;;;;;;-144.73;100.00;54415.91;4977286;28;20035;-74
2023/08/17 01:31:34;;;;;;;12.77;2.67;;;;;;;-144.73;100.00;54411.81;4979253;28;20117;-74
2023/08/17 01:34:07;;;;;;;8.40;1.88;;;;;;;-144.73;100.00;54436.44;4988194;28;20031;-74
2023/08/17 01:36:42;;;;;;;8.80;1.90;;;;;;;-144.73;100.00;54420.00;4973985;28;20576;-74
2023/08/17 01:39:08;;;;;;;13.88;2.15;;;;;;;-144.73;100.00;54432.31;4976214;28;20029;-75
2023/08/17 01:41:36;;;;;;;9.15;2.17;;;;;;;-144.73;100.00;54374.84;4981971;28;20065;-74
2023/08/17 01:44:03;;;;;;;8.13;2.00;;;;;;;-144.73;100.00;54383.06;4979191;28;20023;-74
2023/08/17 01:46:32;;;;;;;6.00;1.77;;;;;;;-144.73;100.00;54415.91;4979821;28;20030;-74
2023/08/17 01:48:58;;;;;;;11.73;2.15;;;;;;;-144.73;100.00;54428.22;4975182;28;20022;-73
2023/08/17 01:51:24;;;;;;;7.95;2.22;;;;;;;-144.73;100.00;54395.38;4975679;28;20034;-73
2023/08/17 01:53:49;;;;;;;10.43;2.40;;;;;;;-144.73;100.00;54391.28;4968948;28;20031;-73
2023/08/17 01:56:15;;;;;;;13.13;2.25;;;;;;;-144.73;100.00;54415.91;4971964;28;20023;-74
2023/08/17 01:58:40;;;;;;;9.35;2.17;;;;;;;-144.73;100.00;54407.69;4970945;28;20069;-73
2023/08/17 02:01:06;;;;;;;12.85;2.53;;;;;;;-144.73;100.00;54391.28;4977115;28;20027;-74
2023/08/17 02:03:31;;;;;;;13.88;2.60;;;;;;;-144.73;100.00;54370.75;4974242;28;20023;-73
2023/08/17 02:05:57;;;;;;;12.07;2.60;;;;;;;-144.73;100.00;54395.38;4989052;28;20043;-74
2023/08/17 02:08:22;;;;;;;10.43;2.17;;;;;;;-144.73;100.00;54424.13;4987576;28;20054;-74
2023/08/17 02:10:48;;;;;;;8.43;1.85;;;;;;;-144.73;100.00;54411.81;4970302;28;20042;-73
2023/08/17 02:13:14;;;;;;;7.85;2.13;;;;;;;-144.73;100.00;54415.91;4981521;28;20137;-74
2023/08/17 02:15:40;;;;;;;9.32;2.88;;;;;;;-144.73;100.00;54440.53;4977824;28;20034;-73
2023/08/17 02:18:05;;;;;;;6.65;2.00;;;;;;;-144.73;100.00;54444.66;4968642;28;20030;-73
2023/08/17 02:20:31;;;;;;;15.98;3.05;;;;;;;-144.73;100.00;54424.13;4975882;28;20065;-74
2023/08/17 02:22:56;;;;;;;9.30;1.67;;;;;;;-144.73;100.00;54411.81;4984334;28;20027;-74
2023/08/17 02:25:22;;;;;;;5.75;1.88;;;;;;;-144.73;100.00;54452.84;4983106;28;20113;-73
2023/08/17 02:27:47;;;;;;;8.43;1.90;;;;;;;-144.73;100.00;54436.44;4973235;28;20030;-74
2023/08/17 02:30:13;;;;;;;9.52;2.13;;;;;;;-144.73;100.00;54411.81;4983576;28;20027;-74
2023/08/17 02:32:38;;;;;;;5.57;1.90;;;;;;;-144.73;100.00;54424.13;4974264;28;20410;-73
2023/08/17 02:35:04;;;;;;;9.98;1.98;;;;;;;-144.73;100.00;54391.28;4969517;28;20031;-73
2023/08/17 02:37:29;;;;;;;14.88;2.17;;;;;;;-144.73;100.00;54446.69;4970780;28;20027;-74
2023/08/17 02:39:55;;;;;;;10.75;2.03;;;;;;;-144.73;100.00;54417.97;4971664;28;20042;-74
2023/08/17 02:42:20;;;;;;;8.63;2.63;;;;;;;-144.73;100.00;54387.19;4982849;28;20023;-74
2023/08/17 02:44:45;;;;;;;10.65;2.63;;;;;;;-144.73;100.00;54395.38;4971452;28;20041;-75
2023/08/17 02:47:11;;;;;;;6.32;2.20;;;;;;;-144.73;100.00;54395.38;4981451;28;20018;-75
2023/08/17 02:49:36;;;;;;;11.45;2.55;;;;;;;-144.73;100.00;54407.69;4979137;28;20035;-74
2023/08/17 02:52:02;;;;;;;9.35;2.00;;;;;;;-144.73;100.00;54436.44;4973984;28;20030;-74
2023/08/17 02:54:27;;;;;;;14.55;2.45;;;;;;;-144.73;100.00;54428.22;4971896;28;20045;-73
2023/08/17 02:56:52;;;;;;;10.23;2.05;;;;;;;-144.73;100.00;54428.22;4986870;28;20019;-74
2023/08/17 02:59:18;;;;;;;7.00;2.15;;;;;;;-144.73;100.00;54378.97;4985047;28;20147;-74
2023/08/17 03:01:45;;;;;;;9.98;2.03;;;;;;;-144.73;100.00;54452.84;4980104;28;20070;-74
2023/08/17 03:04:10;;;;;;;8.32;2.08;;;;;;;-144.73;100.00;54411.81;4980872;28;20151;-73
2023/08/17 03:06:36;;;;;;;9.23;1.95;;;;;;;-144.73;100.00;54393.34;4977857;28;20055;-73
2023/08/17 03:09:02;;;;;;;7.90;2.10;;;;;;;-144.73;100.00;54415.91;4979286;28;20363;-74
2023/08/17 03:11:27;;;;;;;5.63;1.80;;;;;;;-144.73;100.00;54399.50;4972935;28;20034;-73
2023/08/17 03:13:55;;;;;;;8.13;2.70;;;;;;;-144.73;100.00;54430.28;4969895;28;20027;-74
2023/08/17 03:16:20;;;;;;;20.67;2.78;;;;;;;-144.73;100.00;54424.13;4970368;28;20030;-74
2023/08/17 03:18:47;;;;;;;13.40;2.47;;;;;;;-144.73;100.00;54411.81;4968905;28;20035;-74
2023/08/17 03:21:13;;;;;;;14.30;1.95;;;;;;;-144.73;100.00;54428.22;4969647;28;20046;-74
2023/08/17 03:23:38;;;;;;;10.27;2.25;;;;;;;-144.73;100.00;54424.13;4978168;28;20026;-74
2023/08/17 03:26:04;;;;;;;8.48;2.45;;;;;;;-144.73;100.00;54424.13;4978632;28;20023;-74
2023/08/17 03:28:29;;;;;;;5.60;1.70;;;;;;;-144.73;100.00;54385.13;4971260;28;20085;-74
2023/08/17 03:30:55;;;;;;;6.85;1.63;;;;;;;-144.73;100.00;54424.13;4979762;28;20034;-74
2023/08/17 03:33:21;;;;;;;14.70;2.15;;;;;;;-144.73;100.00;54420.00;4987535;28;20042;-74
2023/08/17 03:35:46;;;;;;;6.68;2.08;;;;;;;-144.73;100.00;54436.44;4986191;28;20038;-74
2023/08/17 03:38:12;;;;;;;11.13;1.98;;;;;;;-144.73;100.00;54399.50;4986263;28;20045;-74
2023/08/17 03:40:37;;;;;;;10.30;2.35;;;;;;;-144.73;100.00;54432.31;4982937;28;20441;-74
2023/08/17 03:43:03;;;;;;;8.93;1.67;;;;;;;-144.73;100.00;54383.06;4991000;28;20037;-74
2023/08/17 03:45:29;;;;;;;6.85;2.15;;;;;;;-144.73;100.00;54391.28;4990498;28;20117;-74
2023/08/17 03:47:54;;;;;;;17.23;2.33;;;;;;;-144.73;100.00;54440.53;4981480;28;20026;-74
2023/08/17 03:50:20;;;;;;;8.70;1.67;;;;;;;-144.73;100.00;54424.13;4980286;28;20031;-74
2023/08/17 03:52:45;;;;;;;6.00;1.65;;;;;;;-144.73;100.00;54428.22;4976266;28;20452;-74
2023/08/17 03:55:10;;;;;;;4.60;1.65;;;;;;;-144.73;100.00;54444.66;4979965;28;20027;-74
2023/08/17 03:57:36;;;;;;;5.88;1.67;;;;;;;-144.73;100.00;54391.28;4981212;28;20057;-74
2023/08/17 04:00:01;;;;;;;12.18;2.15;;;;;;;-144.73;100.00;54424.13;4984799;28;20035;-74
2023/08/17 04:02:26;;;;;;;7.00;1.70;;;;;;;-144.73;100.00;54411.81;4975974;28;20544;-74
2023/08/17 04:04:52;;;;;;;5.88;1.60;;;;;;;-144.73;100.00;54428.22;4972553;28;20079;-74
2023/08/17 04:07:23;;;;;;;6.70;1.73;;;;;;;-144.73;100.00;54395.38;4972826;28;20054;-74
2023/08/17 04:09:49;;;;;;;7.68;2.15;;;;;;;-144.73;100.00;54387.19;4972106;28;20069;-74
2023/08/17 04:12:14;;;;;;;8.05;2.08;;;;;;;-144.73;100.00;54420.00;4984272;28;20061;-74
2023/08/17 04:14:40;;;;;;;8.07;2.60;;;;;;;-144.73;100.00;54407.69;4982586;28;20380;-74
2023/08/17 04:17:05;;;;;;;12.52;2.17;;;;;;;-144.73;100.00;54407.69;4979418;28;20394;-74
2023/08/17 04:19:30;;;;;;;11.80;2.08;;;;;;;-144.73;100.00;54420.00;4971353;28;20066;-74
2023/08/17 04:21:55;;;;;;;6.00;1.92;;;;;;;-144.73;100.00;54411.81;4989806;28;20038;-74
2023/08/17 04:24:21;;;;;;;10.25;1.85;;;;;;;-144.73;100.00;54397.44;4979508;28;20035;-74
2023/08/17 04:26:46;;;;;;;6.60;1.77;;;;;;;-144.73;100.00;54407.69;4989152;28;20025;-74
2023/08/17 04:29:11;;;;;;;7.32;1.80;;;;;;;-144.73;100.00;54399.50;4979756;28;20038;-74
2023/08/17 04:31:37;;;;;;;9.35;2.08;;;;;;;-144.73;100.00;54411.81;4972114;28;20037;-74
2023/08/17 04:34:02;;;;;;;4.65;1.50;;;;;;;-144.73;100.00;54407.69;4975407;28;20019;-74
2023/08/17 04:36:28;;;;;;;6.13;2.10;;;;;;;-144.73;100.00;54454.91;4972368;28;20031;-74
2023/08/17 04:38:53;;;;;;;7.65;2.08;;;;;;;-144.73;100.00;54454.91;4971529;28;20041;-74
2023/08/17 04:41:18;;;;;;;8.60;2.13;;;;;;;-144.73;100.00;54456.97;4982430;28;20034;-74
2023/08/17 04:43:46;;;;;;;13.55;2.03;;;;;;;-144.73;100.00;54385.13;4981264;28;20263;-74
2023/08/17 04:46:11;;;;;;;6.60;1.85;;;;;;;-144.73;100.00;54432.31;4979916;28;20027;-74
2023/08/17 04:48:37;;;;;;;11.20;2.35;;;;;;;-144.73;100.00;54407.69;4978993;28;20046;-75
2023/08/17 04:51:02;;;;;;;16.33;2.63;;;;;;;-144.73;100.00;54407.69;4978070;28;20031;-74
2023/08/17 04:53:28;;;;;;;8.52;2.50;;;;;;;-144.73;100.00;54440.53;4972064;28;20023;-74
2023/08/17 04:55:53;;;;;;;10.65;3.40;;;;;;;-144.73;100.00;54461.06;4971005;28;20038;-75
2023/08/17 04:58:19;;;;;;;11.73;2.35;;;;;;;-144.73;100.00;54467.22;4970405;28;20037;-74
2023/08/17 05:00:44;;;;;;;12.32;3.03;;;;;;;-144.73;100.00;54448.75;4968436;28;20069;-75
2023/08/17 05:03:10;;;;;;;12.75;2.60;;;;;;;-144.73;100.00;54436.44;4985609;28;20015;-74
2023/08/17 05:05:37;;;;;;;7.13;2.00;;;;;;;-144.73;100.00;54432.31;4972182;28;20085;-75
2023/08/17 05:08:02;;;;;;;9.07;2.15;;;;;;;-144.73;100.00;54415.91;4982634;28;20029;-74
2023/08/17 05:10:28;;;;;;;13.52;2.33;;;;;;;-144.73;100.00;54399.50;4976939;28;20039;-74
2023/08/17 05:12:54;;;;;;;7.47;2.33;;;;;;;-144.73;100.00;54411.81;4987175;28;20023;-75
2023/08/17 05:15:20;;;;;;;8.45;2.20;;;;;;;-144.73;100.00;54432.31;4984907;28;20157;-75
2023/08/17 05:17:45;;;;;;;9.75;1.90;;;;;;;-144.73;100.00;54448.75;4980577;28;20046;-74
2023/08/17 05:20:12;;;;;;;9.30;2.15;;;;;;;-144.73;100.00;54389.22;4989753;28;20042;-74
2023/08/17 05:22:37;;;;;;;8.75;2.38;;;;;;;-144.73;100.00;54407.69;4974823;28;20023;-74
2023/08/17 05:25:04;;;;;;;17.45;2.88;;;;;;;-144.73;100.00;54440.53;4979342;28;20051;-74
2023/08/17 05:27:29;;;;;;;9.93;2.25;;;;;;;-144.73;100.00;54424.13;4978589;28;20026;-75
2023/08/17 05:29:54;;;;;;;5.85;2.00;;;;;;;-144.73;100.00;54446.69;4979251;28;20505;-75
2023/08/17 05:32:20;;;;;;;7.10;2.40;;;;;;;-144.73;100.00;54436.44;4971373;28;20396;-75
2023/08/17 05:34:47;;;;;;;5.15;2.25;;;;;;;-144.73;100.00;54407.69;4971548;28;20043;-75
2023/08/17 05:37:12;;;;;;;9.57;2.20;;;;;;;-144.73;100.00;54422.06;4973543;28;20018;-75
2023/08/17 05:39:39;;;;;;;7.82;3.97;;;;;;;-144.73;100.00;54432.31;4971284;28;20045;-75
2023/08/17 05:42:04;;;;;;;8.57;2.30;;;;;;;-144.73;100.00;54407.69;4979129;28;20023;-74
2023/08/17 05:44:30;;;;;;;9.65;2.85;;;;;;;-144.73;100.00;54434.38;4978398;28;20042;-74
2023/08/17 05:46:55;;;;;;;12.80;3.05;;;;;;;-144.73;100.00;54428.22;4979221;28;20023;-73
2023/08/17 05:49:20;;;;;;;20.02;3.33;;;;;;;-144.73;100.00;54391.28;4971946;28;20050;-71
2023/08/17 05:51:46;;;;;;;11.50;2.88;;;;;;;-144.73;100.00;54452.84;4974682;28;20106;-73
2023/08/17 05:54:12;;;;;;;13.07;3.50;;;;;;;-144.73;100.00;54420.00;4985416;28;20038;-75
2023/08/17 05:56:37;;;;;;;11.75;3.45;;;;;;;-144.73;100.00;54434.38;4983433;28;20018;-76
2023/08/17 05:59:03;;;;;;;13.43;3.38;;;;;;;-144.73;100.00;54434.38;4976143;28;20023;-76
2023/08/17 06:01:28;;;;;;;9.20;3.25;;;;;;;-144.73;100.00;54436.44;4991190;28;20073;-77
2023/08/17 06:03:54;;;;;;;24.30;4.03;;;;;;;-144.73;100.00;54428.22;4988539;28;20080;-76
2023/08/17 06:06:19;;;;;;;12.05;3.95;;;;;;;-144.73;100.00;54456.97;4990374;28;20026;-76
2023/08/17 06:08:44;;;;;;;14.88;4.22;;;;;;;-144.73;100.00;54444.66;4978872;28;20053;-76
2023/08/17 06:11:10;;;;;;;17.90;3.97;;;;;;;-144.73;100.00;54422.06;4988174;28;20041;-75
2023/08/17 06:13:35;;;;;;;16.48;4.47;;;;;;;-144.73;100.00;54452.84;4975757;28;20064;-75
2023/08/17 06:16:01;;;;;;;17.02;4.63;;;;;;;-144.73;100.00;54436.44;4985793;28;20027;-75
2023/08/17 06:18:26;;;;;;;17.10;4.97;;;;;;;-144.73;100.00;54461.06;4971031;28;20038;-75
2023/08/17 06:20:53;;;;;;;20.65;5.05;;;;;;;-144.73;100.00;54424.13;4971707;28;20043;-75
2023/08/17 06:23:19;;;;;;;14.13;6.03;;;;;;;-144.73;100.00;54436.44;4982631;28;20022;-76
2023/08/17 06:25:45;;;;;;;16.98;4.93;;;;;;;-144.73;100.00;54428.22;4980500;28;20170;-75
2023/08/17 06:28:10;;;;;;;19.98;5.20;;;;;;;-144.73;100.00;54444.66;4982329;28;20066;-75
2023/08/17 06:30:36;;;;;;;17.60;4.65;;;;;;;-144.73;100.00;54424.13;4989010;28;20030;-75
2023/08/17 06:33:01;;;;;;;13.52;4.68;;;;;;;-144.73;100.00;54481.59;4981464;28;20022;-74
2023/08/17 06:35:26;;;;;;;16.65;4.18;;;;;;;-144.73;100.00;54448.75;4984209;28;20042;-75
2023/08/17 06:37:55;;;;;;;31.70;6.60;;;;;;;-144.73;100.00;54456.97;4970556;28;20532;-75
2023/08/17 06:40:21;;;;;;;16.60;5.38;;;;;;;-144.73;100.00;54448.75;4984263;28;20041;-75
2023/08/17 06:42:46;;;;;;;20.83;5.10;;;;;;;-144.73;100.00;54432.31;4981249;28;20022;-74
2023/08/17 06:45:11;;;;;;;22.92;5.90;;;;;;;-144.73;100.00;54415.91;4985387;28;20034;-74
2023/08/17 06:47:37;;;;;;;23.48;6.15;;;;;;;-144.73;100.00;54463.13;4987222;28;20363;-75
2023/08/17 06:50:03;;;;;;;23.50;6.75;;;;;;;-144.73;100.00;54436.44;4977930;28;20110;-74
2023/08/17 06:52:28;;;;;;;12.60;4.82;;;;;;;-144.73;100.00;54479.53;4978293;28;20050;-75
2023/08/17 06:54:53;;;;;;;13.73;4.10;;;;;;;-144.73;100.00;54465.16;4979392;28;20058;-75
2023/08/17 06:57:21;;;;;;;14.85;4.85;;;;;;;-144.73;100.00;54452.84;4976431;28;20122;-75
2023/08/17 06:59:47;;;;;;;18.92;4.05;;;;;;;-144.73;100.00;54452.84;4983308;28;20042;-74
2023/08/17 07:02:12;;;;;;;8.50;3.88;;;;;;;-144.73;100.00;54417.97;4988404;28;20110;-73
2023/08/17 07:04:37;;;;;;;11.45;4.38;;;;;;;-144.73;100.00;54442.59;4977471;28;20059;-74
2023/08/17 07:07:03;;;;;;;10.70;3.83;;;;;;;-144.73;100.00;54459.00;4970302;28;20011;-74
2023/08/17 07:09:28;;;;;;;12.43;3.33;;;;;;;-144.73;100.00;54452.84;4976381;28;20031;-74
2023/08/17 07:11:54;;;;;;;14.20;4.03;;;;;;;-144.73;100.00;54448.75;4974430;28;20085;-74
2023/08/17 07:14:19;;;;;;;14.57;4.18;;;;;;;-144.73;100.00;54444.66;4974113;28;20506;-74
2023/08/17 07:16:44;;;;;;;14.93;6.20;;;;;;;-144.73;100.00;54432.31;4974692;28;20118;-75
2023/08/17 07:19:11;;;;;;;12.75;4.72;;;;;;;-144.73;100.00;54407.69;4975038;28;20035;-75
2023/08/17 07:21:36;;;;;;;18.25;4.40;;;;;;;-144.73;100.00;54477.47;4974602;28;20027;-76
2023/08/17 07:24:15;;;;;;;12.77;4.13;;;;;;;-144.73;100.00;54436.44;4974980;28;20041;-75
2023/08/17 07:26:40;;;;;;;9.02;3.35;;;;;;;-144.73;100.00;54448.75;4977659;28;20015;-77
2023/08/17 07:29:06;;;;;;;13.48;3.88;;;;;;;-144.73;100.00;54461.06;4975526;28;20093;-77
2023/08/17 07:31:33;;;;;;;16.33;4.43;;;;;;;-144.73;100.00;54456.97;4975627;28;20022;-77
2023/08/17 07:33:59;;;;;;;11.68;3.63;;;;;;;-144.73;100.00;54436.44;4976610;28;20023;-77
2023/08/17 07:36:24;;;;;;;10.15;3.25;;;;;;;-144.73;100.00;54440.53;4974600;28;20022;-77
2023/08/17 07:38:50;;;;;;;11.15;3.75;;;;;;;-144.73;100.00;54426.16;4984590;28;20041;-76
2023/08/17 07:41:15;;;;;;;7.55;3.03;;;;;;;-144.73;100.00;54452.84;4986042;28;20030;-77
2023/08/17 07:43:41;;;;;;;10.85;3.72;;;;;;;-144.73;100.00;54471.31;4981570;28;20026;-77
2023/08/17 07:46:06;;;;;;;7.43;3.22;;;;;;;-144.73;100.00;54422.06;4991597;28;20018;-77
2023/08/17 07:48:33;;;;;;;12.68;4.75;;;;;;;-144.73;100.00;54463.13;4986066;28;20027;-77
2023/08/17 07:50:59;;;;;;;17.48;3.88;;;;;;;-144.73;100.00;54448.75;4980862;28;20038;-77
2023/08/17 07:53:24;;;;;;;16.10;4.45;;;;;;;-144.73;100.00;54456.97;4964995;28;20541;-77
2023/08/17 07:55:49;;;;;;;20.65;4.68;;;;;;;-144.73;100.00;54420.00;4969158;28;20098;-77
2023/08/17 07:58:15;;;;;;;20.48;5.03;;;;;;;-144.73;100.00;54481.59;4967008;28;20092;-77
2023/08/17 08:00:40;;;;;;;13.57;4.90;;;;;;;-144.73;100.00;54407.69;4972255;28;20039;-77
2023/08/17 08:03:05;;;;;;;15.68;4.63;;;;;;;-144.73;100.00;54436.44;4981998;28;20026;-78
2023/08/17 08:05:31;;;;;;;12.27;4.65;;;;;;;-144.73;100.00;54442.59;4982397;28;20038;-77
2023/08/17 08:07:56;;;;;;;15.02;4.85;;;;;;;-144.73;100.00;54444.66;4980978;28;20041;-77
2023/08/17 08:10:22;;;;;;;14.02;5.22;;;;;;;-144.73;100.00;54444.66;4971632;28;20047;-77
2023/08/17 08:12:47;;;;;;;16.45;5.65;;;;;;;-144.73;100.00;54465.16;4971747;28;20065;-78
2023/08/17 08:15:12;;;;;;;15.85;4.90;;;;;;;-144.73;100.00;54456.97;4968808;28;20027;-78
2023/08/17 08:17:38;;;;;;;25.58;5.78;;;;;;;-144.73;100.00;54493.91;4974474;28;20023;-78
2023/08/17 08:20:04;;;;;;;10.30;4.22;;;;;;;-144.73;100.00;54448.75;4973712;28;20498;-75
2023/08/17 08:22:29;;;;;;;15.38;4.38;;;;;;;-144.73;100.00;54491.84;4973856;28;20114;-75
2023/08/17 08:24:55;;;;;;;16.25;3.35;;;;;;;-144.73;100.00;54477.47;4979675;28;20117;-75
2023/08/17 08:27:20;;;;;;;8.23;3.33;;;;;;;-144.73;100.00;54514.44;4974319;28;20018;-75
2023/08/17 08:29:46;;;;;;;9.25;3.55;;;;;;;-144.73;100.00;54452.84;4964981;28;20079;-75
2023/08/17 08:32:11;;;;;;;5.85;2.80;;;;;;;-144.73;100.00;54473.38;4967134;28;20033;-75
2023/08/17 08:34:37;;;;;;;11.10;3.40;;;;;;;-144.73;100.00;54485.69;4966370;28;20046;-75
2023/08/17 08:37:02;;;;;;;4.75;3.10;;;;;;;-144.73;100.00;54500.06;4966246;28;20079;-75
2023/08/17 08:39:28;;;;;;;11.93;4.32;;;;;;;-144.73;100.00;54448.75;4973613;28;20474;-76
2023/08/17 08:41:54;;;;;;;9.30;3.05;;;;;;;-144.73;100.00;54461.06;4974604;28;20401;-75
2023/08/17 08:44:20;;;;;;;10.60;3.33;;;;;;;-144.73;100.00;54477.47;4973991;28;20125;-75
2023/08/17 08:46:45;;;;;;;11.20;3.47;;;;;;;-144.73;100.00;54452.84;4978825;28;20114;-76
2023/08/17 08:49:12;;;;;;;9.23;3.90;;;;;;;-144.73;100.00;54491.84;4968586;28;20031;-76
2023/08/17 08:51:48;;;;;;;8.93;3.95;;;;;;;-144.73;100.00;54454.91;4970911;28;20023;-76
2023/08/17 08:54:17;;;;;;;10.50;3.30;;;;;;;-144.73;100.00;54487.75;4970016;28;20042;-75
2023/08/17 08:56:46;;;;;;;6.97;2.63;;;;;;;-144.73;100.00;54456.97;4968972;28;20073;-76
2023/08/17 08:59:11;;;;;;;9.60;3.00;;;;;;;-144.73;100.00;54456.97;4976360;28;20105;-76
2023/08/17 09:01:38;;;;;;;9.02;3.63;;;;;;;-144.73;100.00;54469.28;4976114;28;20022;-75
2023/08/17 09:04:04;;;;;;;9.30;3.35;;;;;;;-144.73;100.00;54461.06;4973601;28;20026;-76
2023/08/17 09:06:30;;;;;;;9.00;3.25;;;;;;;-144.73;100.00;54456.97;4971924;28;20014;-75
2023/08/17 09:09:01;;;;;;;6.93;2.95;;;;;;;-144.73;100.00;54436.44;4979360;28;20023;-75
2023/08/17 09:11:27;;;;;;;5.73;2.80;;;;;;;-144.73;100.00;54465.16;4975620;28;20531;-76
2023/08/17 09:13:53;;;;;;;9.48;3.47;;;;;;;-144.73;100.00;54424.13;4970884;28;20022;-75
2023/08/17 09:16:19;;;;;;;11.48;3.35;;;;;;;-144.73;100.00;54477.47;4979294;28;20042;-76
2023/08/17 09:18:44;;;;;;;8.70;2.92;;;;;;;-144.73;100.00;54493.91;4970550;28;20478;-75
2023/08/17 09:21:21;;;;;;;7.35;2.75;;;;;;;-144.73;100.00;54456.97;4975772;28;20039;-75
2023/08/17 09:23:52;;;;;;;5.28;2.78;;;;;;;-144.73;100.00;54475.44;4981132;28;20030;-75
2023/08/17 09:26:19;;;;;;;8.40;2.92;;;;;;;-144.73;100.00;54428.22;4967786;28;20126;-75
2023/08/17 09:28:45;;;;;;;8.30;3.05;;;;;;;-144.73;100.00;54444.66;4971320;28;20025;-75
2023/08/17 09:31:11;;;;;;;14.10;3.83;;;;;;;-144.73;100.00;54448.75;4974475;28;20034;-75
2023/08/17 09:33:37;;;;;;;15.73;2.83;;;;;;;-144.73;100.00;54432.31;4975037;28;20109;-76
2023/08/17 09:36:04;;;;;;;4.55;2.75;;;;;;;-144.73;100.00;54465.16;4970494;28;20113;-75
2023/08/17 09:38:29;;;;;;;6.05;2.78;;;;;;;-144.73;100.00;54469.28;4979434;28;20046;-75
2023/08/17 09:40:57;;;;;;;9.38;3.03;;;;;;;-144.73;100.00;54448.75;4962755;28;20042;-75
2023/08/17 09:43:24;;;;;;;9.13;3.00;;;;;;;-144.73;100.00;54469.28;4964596;28;20025;-76
2023/08/17 09:45:49;;;;;;;6.32;2.58;;;;;;;-144.73;100.00;54481.59;4961074;28;20073;-76
2023/08/17 09:48:19;;;;;;;9.52;2.60;;;;;;;-144.73;100.00;54461.06;4963873;28;20054;-75
2023/08/17 09:50:47;;;;;;;6.20;2.85;;;;;;;-144.73;100.00;54473.38;4979659;28;20126;-76
2023/08/17 09:53:14;;;;;;;14.40;2.80;;;;;;;-144.73;100.00;54489.81;4964210;28;20085;-75
2023/08/17 09:55:42;;;;;;;5.82;2.00;;;;;;;-144.73;100.00;54415.91;4961506;28;20039;-74
2023/08/17 09:58:08;;;;;;;3.15;1.90;;;;;;;-144.73;100.00;54452.84;4967201;28;20023;-74
2023/08/17 10:00:34;;;;;;;4.25;2.20;;;;;;;-144.73;100.00;54473.38;4974075;28;20031;-75
2023/08/17 10:03:02;;;;;;;4.68;2.47;;;;;;;-144.73;100.00;54489.81;4965283;28;20038;-75
2023/08/17 10:05:31;;;;;;;7.45;2.38;;;;;;;-144.73;100.00;54448.75;4964387;28;20070;-75
2023/08/17 10:07:59;;;;;;;5.68;2.03;;;;;;;-144.73;100.00;54485.69;4965447;28;20133;-76
2023/08/17 10:10:26;;;;;;;8.38;2.67;;;;;;;-144.73;100.00;54450.81;4964959;28;20035;-75
2023/08/17 10:13:11;;;;;;;4.88;2.05;;;;;;;-144.73;100.00;54485.69;4965002;28;20054;-74
2023/08/17 10:15:44;;;;;;;5.43;2.15;;;;;;;-144.73;100.00;54498.00;4972378;28;20039;-75
2023/08/17 10:18:31;;;;;;;3.78;2.10;;;;;;;-144.73;100.00;54489.81;4958280;28;20023;-76
2023/08/17 10:21:01;;;;;;;5.65;2.70;;;;;;;-144.73;100.00;54469.28;4981320;28;20058;-75
2023/08/17 10:23:27;;;;;;;3.60;2.13;;;;;;;-144.73;100.00;54456.97;4956767;28;20054;-76
2023/08/17 10:25:53;;;;;;;10.93;4.57;;;;;;;-144.73;100.00;54469.28;4978687;28;20133;-75
2023/08/17 10:28:21;;;;;;;4.65;2.47;;;;;;;-144.73;100.00;54432.31;4959014;28;20034;-76
2023/08/17 10:30:48;;;;;;;7.90;2.58;;;;;;;-144.73;100.00;54498.00;4955363;28;20039;-76
2023/08/17 10:33:15;;;;;;;6.30;2.60;;;;;;;-144.73;100.00;54452.84;4953310;28;20023;-76
2023/08/17 10:35:41;;;;;;;5.60;2.15;;;;;;;-144.73;100.00;54481.59;4955945;28;20047;-77
2023/08/17 10:38:08;;;;;;;7.30;2.55;;;;;;;-144.73;100.00;54461.06;4957441;28;20035;-76
2023/08/17 10:40:39;;;;;;;5.03;2.63;;;;;;;-144.73;100.00;54473.38;4958855;28;20046;-76
2023/08/17 10:43:04;;;;;;;3.95;2.33;;;;;;;-144.73;100.00;54452.84;4960947;28;20030;-75
2023/08/17 10:45:38;;;;;;;9.65;3.55;;;;;;;-144.73;100.00;54465.16;4956995;28;20035;-76
2023/08/17 10:48:07;;;;;;;5.75;2.60;;;;;;;-144.73;100.00;54424.13;4978570;28;20018;-76
2023/08/17 10:50:33;;;;;;;6.85;2.90;;;;;;;-144.73;100.00;54473.38;4956738;28;20035;-76
2023/08/17 10:53:04;;;;;;;5.18;2.85;;;;;;;-144.73;100.00;54495.97;4953046;28;20117;-76
2023/08/17 10:55:38;;;;;;;4.75;2.53;;;;;;;-144.73;100.00;54461.06;4958012;28;20094;-76
2023/08/17 10:58:04;;;;;;;6.25;2.47;;;;;;;-144.73;100.00;54498.00;4962535;28;20112;-76
2023/08/17 11:00:38;;;;;;;6.00;2.33;;;;;;;-144.73;100.00;54477.47;4966180;28;20114;-76
2023/08/17 11:03:16;;;;;;;7.57;3.00;;;;;;;-144.73;100.00;54436.44;4968936;28;20022;-76